createdAt,value
2018-11-11T00:00:14.429Z,27.1
2018-11-11T00:01:16.855Z,27.1
2018-11-11T00:02:19.030Z,27.1
2018-11-11T00:03:21.459Z,27.1
2018-11-11T00:04:23.899Z,27.1
2018-11-11T00:05:25.792Z,27.1
2018-11-11T00:06:27.938Z,27.1
2018-11-11T00:07:30.107Z,27.1
2018-11-11T00:08:32.269Z,27.1
2018-11-11T00:09:34.449Z,27.1
2018-11-11T00:10:36.596Z,27.1
2018-11-11T00:11:38.479Z,27.2
2018-11-11T00:12:40.377Z,27.2
2018-11-11T00:13:42.804Z,27.2
2018-11-11T00:14:44.964Z,27.2
2018-11-11T00:15:47.129Z,27.2
2018-11-11T00:16:49.569Z,27.2
2018-11-11T00:17:51.719Z,27.3
2018-11-11T00:18:53.884Z,27.3
2018-11-11T00:19:56.311Z,27.3
2018-11-11T00:20:58.191Z,27.3
2018-11-11T00:22:00.621Z,27.3
2018-11-11T00:23:02.778Z,27.3
2018-11-11T00:24:05.222Z,27.4
2018-11-11T00:25:07.373Z,27.4
2018-11-11T00:26:09.797Z,27.4
2018-11-11T00:27:11.957Z,27.4
2018-11-11T00:28:14.375Z,27.4
2018-11-11T00:29:16.539Z,27.4
2018-11-11T00:30:18.715Z,27.4
2018-11-11T00:31:20.869Z,27.4
2018-11-11T00:32:23.310Z,27.5
2018-11-11T00:33:25.178Z,27.5
2018-11-11T00:34:27.603Z,27.5
2018-11-11T00:35:30.030Z,27.5
2018-11-11T00:36:32.171Z,27.5
2018-11-11T00:37:34.596Z,27.5
2018-11-11T00:38:36.221Z,27.5
2018-11-11T00:39:39.036Z,27.5
2018-11-11T00:40:41.817Z,27.5
2018-11-11T00:41:44.269Z,27.5
2018-11-11T00:42:46.139Z,27.6
2018-11-11T00:43:48.030Z,27.6
2018-11-11T00:44:50.193Z,27.6
2018-11-11T00:45:52.078Z,27.6
2018-11-11T00:46:53.969Z,27.6
2018-11-11T00:47:56.397Z,27.6
2018-11-11T00:48:58.559Z,27.6
2018-11-11T00:50:01.024Z,27.6
2018-11-11T00:51:03.439Z,27.6
2018-11-11T00:52:05.601Z,27.6
2018-11-11T00:53:07.770Z,27.7
2018-11-11T00:54:10.199Z,27.7
2018-11-11T00:55:12.379Z,27.7
2018-11-11T00:56:14.537Z,27.7
2018-11-11T00:57:16.962Z,27.7
2018-11-11T00:58:19.127Z,27.7
2018-11-11T00:59:21.265Z,27.7
2018-11-11T01:00:23.439Z,27.7
2018-11-11T01:01:25.599Z,27.7
2018-11-11T01:02:27.467Z,27.7
2018-11-11T01:03:29.601Z,27.7
2018-11-11T01:04:32.033Z,27.7
2018-11-11T01:05:34.187Z,27.7
2018-11-11T01:06:36.627Z,27.7
2018-11-11T01:07:39.066Z,27.7
2018-11-11T01:08:41.228Z,27.7
2018-11-11T01:09:43.661Z,27.8
2018-11-11T01:10:45.817Z,27.8
2018-11-11T01:11:47.955Z,27.8
2018-11-11T01:12:49.586Z,27.8
2018-11-11T01:13:52.053Z,27.8
2018-11-11T01:14:53.909Z,27.8
2018-11-11T01:15:55.797Z,27.8
2018-11-11T01:16:57.958Z,27.8
2018-11-11T01:17:59.827Z,27.8
2018-11-11T01:19:02.248Z,27.8
2018-11-11T01:20:04.406Z,27.8
2018-11-11T01:21:06.286Z,27.8
2018-11-11T01:22:08.170Z,27.8
2018-11-11T01:23:10.598Z,27.8
2018-11-11T01:24:12.749Z,27.8
2018-11-11T01:25:15.177Z,27.8
2018-11-11T01:26:17.047Z,27.8
2018-11-11T01:27:19.181Z,27.8
2018-11-11T01:28:21.079Z,27.8
2018-11-11T01:29:22.679Z,27.8
2018-11-11T01:30:24.290Z,27.8
2018-11-11T01:31:26.427Z,27.8
2018-11-11T01:32:28.026Z,27.8
2018-11-11T01:33:30.195Z,27.8
2018-11-11T01:34:32.621Z,27.8
2018-11-11T01:35:35.049Z,27.8
2018-11-11T01:36:37.476Z,27.8
2018-11-11T01:37:39.915Z,27.8
2018-11-11T01:38:41.770Z,27.8
2018-11-11T01:39:44.189Z,27.8
2018-11-11T01:40:46.646Z,27.8
2018-11-11T01:41:48.794Z,27.8
2018-11-11T01:42:50.950Z,27.8
2018-11-11T01:43:53.132Z,27.8
2018-11-11T01:44:55.279Z,27.8
2018-11-11T01:45:57.141Z,27.8
2018-11-11T01:46:59.276Z,27.9
2018-11-11T01:48:01.708Z,27.9
2018-11-11T01:49:03.871Z,27.9
2018-11-11T01:50:06.304Z,27.9
2018-11-11T01:51:08.460Z,27.9
2018-11-11T01:52:10.628Z,27.9
2018-11-11T01:53:13.057Z,27.9
2018-11-11T01:54:14.950Z,27.9
2018-11-11T01:55:17.098Z,27.9
2018-11-11T01:56:19.527Z,27.9
2018-11-11T01:57:21.676Z,27.9
2018-11-11T01:58:23.835Z,27.9
2018-11-11T01:59:25.983Z,27.9
2018-11-11T02:00:28.429Z,27.9
2018-11-11T02:01:30.572Z,27.9
2018-11-11T02:02:32.728Z,27.9
2018-11-11T02:03:34.614Z,27.9
2018-11-11T02:04:36.773Z,27.9
2018-11-11T02:05:39.215Z,27.9
2018-11-11T02:06:41.117Z,27.9
2018-11-11T02:07:43.003Z,27.9
2018-11-11T02:08:44.888Z,27.9
2018-11-11T02:09:46.969Z,27.9
2018-11-11T02:10:49.385Z,27.9
2018-11-11T02:11:50.969Z,27.9
2018-11-11T02:12:52.859Z,27.9
2018-11-11T02:13:55.289Z,27.9
2018-11-11T02:14:57.719Z,27.9
2018-11-11T02:15:59.873Z,27.9
2018-11-11T02:17:01.746Z,27.9
2018-11-11T02:18:03.901Z,27.9
2018-11-11T02:19:06.059Z,27.9
2018-11-11T02:20:08.214Z,27.9
2018-11-11T02:21:10.931Z,27.9
2018-11-11T02:22:13.276Z,27.9
2018-11-11T02:23:15.716Z,27.9
2018-11-11T02:24:17.847Z,27.9
2018-11-11T02:25:19.980Z,27.9
2018-11-11T02:26:22.139Z,27.9
2018-11-11T02:27:24.297Z,27.9
2018-11-11T02:28:25.877Z,27.9
2018-11-11T02:29:28.029Z,27.9
2018-11-11T02:30:30.451Z,27.9
2018-11-11T02:31:32.595Z,27.9
2018-11-11T02:32:34.765Z,27.9
2018-11-11T02:33:37.188Z,27.9
2018-11-11T02:34:38.826Z,27.9
2018-11-11T02:35:40.404Z,27.9
2018-11-11T02:36:42.559Z,27.9
2018-11-11T02:37:44.917Z,27.9
2018-11-11T02:38:47.781Z,27.9
2018-11-11T02:39:49.629Z,27.9
2018-11-11T02:40:51.520Z,27.9
2018-11-11T02:41:53.404Z,27.9
2018-11-11T02:42:55.827Z,27.9
2018-11-11T02:43:57.707Z,27.9
2018-11-11T02:44:59.876Z,27.9
2018-11-11T02:46:02.309Z,27.9
2018-11-11T02:47:04.450Z,27.9
2018-11-11T02:48:06.628Z,27.9
2018-11-11T02:49:08.782Z,27.9
2018-11-11T02:50:10.952Z,27.9
2018-11-11T02:51:12.276Z,27.9
2018-11-11T02:52:14.706Z,27.9
2018-11-11T02:53:16.594Z,27.9
2018-11-11T02:54:18.743Z,27.9
2018-11-11T02:55:20.899Z,27.9
2018-11-11T02:56:23.069Z,27.9
2018-11-11T02:57:25.218Z,27.9
2018-11-11T02:58:26.806Z,27.9
2018-11-11T02:59:28.701Z,27.9
2018-11-11T03:00:30.301Z,27.9
2018-11-11T03:01:32.191Z,27.9
2018-11-11T03:02:34.615Z,27.9
2018-11-11T03:03:36.208Z,27.9
2018-11-11T03:04:38.638Z,27.9
2018-11-11T03:05:40.799Z,27.9
2018-11-11T03:06:42.390Z,27.9
2018-11-11T03:07:44.819Z,27.9
2018-11-11T03:08:46.717Z,27.9
2018-11-11T03:09:48.594Z,27.9
2018-11-11T03:10:51.026Z,27.9
2018-11-11T03:11:52.609Z,27.9
2018-11-11T03:12:55.037Z,27.9
2018-11-11T03:13:57.459Z,27.9
2018-11-11T03:14:59.344Z,27.9
2018-11-11T03:16:01.491Z,27.9
2018-11-11T03:17:03.917Z,27.9
2018-11-11T03:18:06.089Z,27.9
2018-11-11T03:19:08.230Z,27.9
2018-11-11T03:20:10.396Z,27.9
2018-11-11T03:21:11.988Z,27.9
2018-11-11T03:22:14.158Z,27.9
2018-11-11T03:23:16.045Z,27.9
2018-11-11T03:24:17.935Z,27.9
2018-11-11T03:25:20.104Z,27.9
2018-11-11T03:26:22.251Z,27.9
2018-11-11T03:27:24.702Z,27.9
2018-11-11T03:28:26.841Z,27.9
2018-11-11T03:29:29.268Z,27.9
2018-11-11T03:30:31.697Z,27.9
2018-11-11T03:31:33.014Z,27.9
2018-11-11T03:32:35.153Z,27.9
2018-11-11T03:33:37.313Z,27.9
2018-11-11T03:34:39.465Z,27.9
2018-11-11T03:35:41.632Z,27.9
2018-11-11T03:36:43.795Z,27.9
2018-11-11T03:37:45.947Z,27.9
2018-11-11T03:38:48.369Z,27.9
2018-11-11T03:39:50.516Z,27.9
2018-11-11T03:40:52.672Z,27.9
2018-11-11T03:41:54.845Z,27.9
2018-11-11T03:42:57.049Z,28
2018-11-11T03:43:59.198Z,27.9
2018-11-11T03:45:01.345Z,28
2018-11-11T03:46:03.776Z,27.9
2018-11-11T03:47:05.654Z,28
2018-11-11T03:48:07.797Z,28
2018-11-11T03:49:09.963Z,28
2018-11-11T03:50:12.394Z,28
2018-11-11T03:51:14.543Z,28
2018-11-11T03:52:16.434Z,28
2018-11-11T03:53:18.857Z,28
2018-11-11T03:54:21.019Z,28
2018-11-11T03:55:23.447Z,28
2018-11-11T03:56:25.878Z,28
2018-11-11T03:57:27.473Z,28
2018-11-11T03:58:29.718Z,28
2018-11-11T03:59:31.680Z,28
2018-11-11T04:00:33.839Z,28
2018-11-11T04:01:36.012Z,28
2018-11-11T04:02:37.891Z,28
2018-11-11T04:03:40.079Z,27.9
2018-11-11T04:04:42.505Z,27.9
2018-11-11T04:05:44.648Z,27.9
2018-11-11T04:06:46.811Z,27.9
2018-11-11T04:07:48.708Z,27.9
2018-11-11T04:08:51.144Z,27.9
2018-11-11T04:09:52.475Z,27.9
2018-11-11T04:10:54.358Z,27.8
2018-11-11T04:11:56.239Z,27.8
2018-11-11T04:12:57.566Z,27.8
2018-11-11T04:13:59.739Z,27.8
2018-11-11T04:15:01.905Z,27.8
2018-11-11T04:16:04.379Z,27.8
2018-11-11T04:17:06.249Z,27.8
2018-11-11T04:18:08.669Z,27.7
2018-11-11T04:19:11.094Z,27.7
2018-11-11T04:20:13.516Z,27.7
2018-11-11T04:21:15.946Z,27.7
2018-11-11T04:22:18.099Z,27.7
2018-11-11T04:23:20.529Z,27.7
2018-11-11T04:24:22.965Z,27.7
2018-11-11T04:25:24.834Z,27.7
2018-11-11T04:26:26.988Z,27.7
2018-11-11T04:27:29.158Z,27.6
2018-11-11T04:28:31.315Z,27.6
2018-11-11T04:29:33.219Z,27.6
2018-11-11T04:30:35.668Z,27.6
2018-11-11T04:31:38.093Z,27.6
2018-11-11T04:32:40.243Z,27.6
2018-11-11T04:33:41.859Z,27.6
2018-11-11T04:34:44.038Z,27.6
2018-11-11T04:35:46.455Z,27.6
2018-11-11T04:36:48.898Z,27.6
2018-11-11T04:37:51.330Z,27.6
2018-11-11T04:38:53.538Z,27.5
2018-11-11T04:39:55.680Z,27.5
2018-11-11T04:40:57.275Z,27.5
2018-11-11T04:41:59.710Z,27.5
2018-11-11T04:43:01.869Z,27.5
2018-11-11T04:44:04.028Z,27.5
2018-11-11T04:45:06.187Z,27.5
2018-11-11T04:46:08.621Z,27.5
2018-11-11T04:47:10.767Z,27.5
2018-11-11T04:48:12.916Z,27.5
2018-11-11T04:49:15.122Z,27.5
2018-11-11T04:50:17.289Z,27.5
2018-11-11T04:51:19.714Z,27.5
2018-11-11T04:52:21.867Z,27.5
2018-11-11T04:53:24.013Z,27.5
2018-11-11T04:54:25.884Z,27.5
2018-11-11T04:55:27.770Z,27.5
2018-11-11T04:56:29.355Z,27.5
2018-11-11T04:57:31.539Z,27.5
2018-11-11T04:58:32.858Z,27.4
2018-11-11T04:59:34.730Z,27.4
2018-11-11T05:00:36.894Z,27.4
2018-11-11T05:01:39.930Z,27.4
2018-11-11T05:02:42.556Z,27.4
2018-11-11T05:03:44.698Z,27.4
2018-11-11T05:04:47.039Z,27.4
2018-11-11T05:05:49.894Z,27.4
2018-11-11T05:06:52.316Z,27.4
2018-11-11T05:07:54.733Z,27.4
2018-11-11T05:08:57.166Z,27.4
2018-11-11T05:09:59.327Z,27.4
2018-11-11T05:11:01.195Z,27.4
2018-11-11T05:12:03.082Z,27.4
2018-11-11T05:13:05.505Z,27.4
2018-11-11T05:14:07.937Z,27.4
2018-11-11T05:15:10.379Z,27.4
2018-11-11T05:16:12.243Z,27.4
2018-11-11T05:17:14.678Z,27.4
2018-11-11T05:18:16.834Z,27.4
2018-11-11T05:19:18.988Z,27.4
2018-11-11T05:20:20.859Z,27.4
2018-11-11T05:21:22.756Z,27.4
2018-11-11T05:22:24.924Z,27.4
2018-11-11T05:23:27.088Z,27.4
2018-11-11T05:24:29.244Z,27.4
2018-11-11T05:25:31.402Z,27.4
2018-11-11T05:26:33.539Z,27.4
2018-11-11T05:27:35.720Z,27.4
2018-11-11T05:28:37.605Z,27.4
2018-11-11T05:29:39.498Z,27.4
2018-11-11T05:30:41.349Z,27.4
2018-11-11T05:31:43.821Z,27.4
2018-11-11T05:32:46.248Z,27.4
2018-11-11T05:33:48.404Z,27.4
2018-11-11T05:34:50.559Z,27.4
2018-11-11T05:35:53.001Z,27.4
2018-11-11T05:36:55.425Z,27.4
2018-11-11T05:37:57.047Z,27.4
2018-11-11T05:38:59.198Z,27.4
2018-11-11T05:40:01.638Z,27.4
2018-11-11T05:41:03.802Z,27.4
2018-11-11T05:42:05.679Z,27.4
2018-11-11T05:43:07.276Z,27.4
2018-11-11T05:44:08.613Z,27.4
2018-11-11T05:45:11.053Z,27.4
2018-11-11T05:46:13.210Z,27.4
2018-11-11T05:47:15.357Z,27.4
2018-11-11T05:48:17.539Z,27.4
2018-11-11T05:49:19.981Z,27.4
2018-11-11T05:50:22.110Z,27.4
2018-11-11T05:51:24.358Z,27.4
2018-11-11T05:52:26.247Z,27.4
2018-11-11T05:53:28.137Z,27.3
2018-11-11T05:54:30.591Z,27.4
2018-11-11T05:55:32.479Z,27.4
2018-11-11T05:56:34.659Z,27.4
2018-11-11T05:57:36.813Z,27.4
2018-11-11T05:58:38.965Z,27.3
2018-11-11T05:59:41.120Z,27.3
2018-11-11T06:00:43.544Z,27.3
2018-11-11T06:01:45.427Z,27.3
2018-11-11T06:02:47.326Z,27.3
2018-11-11T06:03:49.467Z,27.3
2018-11-11T06:04:51.619Z,27.3
2018-11-11T06:05:53.496Z,27.3
2018-11-11T06:06:55.103Z,27.3
2018-11-11T06:07:57.529Z,27.3
2018-11-11T06:08:59.686Z,27.3
2018-11-11T06:10:01.865Z,27.3
2018-11-11T06:11:03.759Z,27.3
2018-11-11T06:12:05.633Z,27.3
2018-11-11T06:13:07.798Z,27.3
2018-11-11T06:14:09.962Z,27.3
2018-11-11T06:15:12.119Z,27.3
2018-11-11T06:16:14.559Z,27.3
2018-11-11T06:17:16.448Z,27.3
2018-11-11T06:18:18.339Z,27.3
2018-11-11T06:19:20.509Z,27.3
2018-11-11T06:20:22.943Z,27.3
2018-11-11T06:21:25.085Z,27.3
2018-11-11T06:22:27.500Z,27.3
2018-11-11T06:23:29.936Z,27.3
2018-11-11T06:24:32.079Z,27.3
2018-11-11T06:25:34.514Z,27.3
2018-11-11T06:26:36.939Z,27.3
2018-11-11T06:27:39.872Z,27.2
2018-11-11T06:28:41.845Z,27.3
2018-11-11T06:29:44.266Z,27.3
2018-11-11T06:30:46.143Z,27.2
2018-11-11T06:31:48.003Z,27.3
2018-11-11T06:32:50.444Z,27.2
2018-11-11T06:33:52.389Z,27.2
2018-11-11T06:34:55.205Z,27.2
2018-11-11T06:35:57.352Z,27.2
2018-11-11T06:36:59.787Z,27.2
2018-11-11T06:38:01.653Z,27.2
2018-11-11T06:39:03.245Z,27.2
2018-11-11T06:40:04.864Z,27.2
2018-11-11T06:41:07.013Z,27.2
2018-11-11T06:42:09.175Z,27.2
2018-11-11T06:43:11.329Z,27.2
2018-11-11T06:44:13.489Z,27.2
2018-11-11T06:45:15.656Z,27.2
2018-11-11T06:46:17.818Z,27.2
2018-11-11T06:47:19.969Z,27.2
2018-11-11T06:48:22.400Z,27.2
2018-11-11T06:49:24.287Z,27.2
2018-11-11T06:50:26.153Z,27.2
2018-11-11T06:51:28.321Z,27.2
2018-11-11T06:52:30.470Z,27.2
2018-11-11T06:53:32.612Z,27.2
2018-11-11T06:54:34.516Z,27.2
2018-11-11T06:55:36.654Z,27.2
2018-11-11T06:56:38.806Z,27.2
2018-11-11T06:57:40.707Z,27.2
2018-11-11T06:58:42.852Z,27.2
2018-11-11T06:59:45.274Z,27.2
2018-11-11T07:00:47.152Z,27.2
2018-11-11T07:01:49.289Z,27.2
2018-11-11T07:02:51.419Z,27.2
2018-11-11T07:03:53.837Z,27.2
2018-11-11T07:04:55.717Z,27.2
2018-11-11T07:05:57.321Z,27.2
2018-11-11T07:06:59.470Z,27.2
2018-11-11T07:08:01.352Z,27.2
2018-11-11T07:09:03.482Z,27.2
2018-11-11T07:10:05.631Z,27.2
2018-11-11T07:11:07.780Z,27.2
2018-11-11T07:12:09.943Z,27.2
2018-11-11T07:13:12.092Z,27.2
2018-11-11T07:14:15.046Z,27.2
2018-11-11T07:15:17.028Z,27.2
2018-11-11T07:16:19.168Z,27.2
2018-11-11T07:17:20.818Z,27.2
2018-11-11T07:18:23.241Z,27.2
2018-11-11T07:19:25.667Z,27.2
2018-11-11T07:20:28.099Z,27.2
2018-11-11T07:21:29.975Z,27.2
2018-11-11T07:22:32.423Z,27.2
2018-11-11T07:23:34.736Z,27.2
2018-11-11T07:24:36.995Z,27.2
2018-11-11T07:25:39.172Z,27.2
2018-11-11T07:26:41.599Z,27.2
2018-11-11T07:27:44.025Z,27.2
2018-11-11T07:28:46.244Z,27.2
2018-11-11T07:29:48.394Z,27.2
2018-11-11T07:30:50.559Z,27.2
2018-11-11T07:31:52.991Z,27.2
2018-11-11T07:32:55.152Z,27.2
2018-11-11T07:33:57.588Z,27.2
2018-11-11T07:34:59.734Z,27.2
2018-11-11T07:36:02.299Z,27.2
2018-11-11T07:37:05.105Z,27.2
2018-11-11T07:38:06.980Z,27.2
2018-11-11T07:39:09.396Z,27.2
2018-11-11T07:40:11.288Z,27.1
2018-11-11T07:41:13.168Z,27.1
2018-11-11T07:42:15.409Z,27.1
2018-11-11T07:43:17.947Z,27.1
2018-11-11T07:44:20.380Z,27.1
2018-11-11T07:45:22.815Z,27.1
2018-11-11T07:46:24.966Z,27.1
2018-11-11T07:47:27.404Z,27.1
2018-11-11T07:48:29.843Z,27.1
2018-11-11T07:49:32.272Z,27.1
2018-11-11T07:50:34.148Z,27.1
2018-11-11T07:51:36.312Z,27.1
2018-11-11T07:52:38.743Z,27.1
2018-11-11T07:53:41.172Z,27.1
2018-11-11T07:54:43.690Z,27.1
2018-11-11T07:55:45.946Z,27.1
2018-11-11T07:56:48.166Z,27.1
2018-11-11T07:57:50.317Z,27.1
2018-11-11T07:58:51.640Z,27.1
2018-11-11T07:59:53.798Z,27.1
2018-11-11T08:00:55.690Z,27.1
2018-11-11T08:01:57.890Z,27.1
2018-11-11T08:03:00.394Z,27.1
2018-11-11T08:04:02.589Z,27.1
2018-11-11T08:05:04.457Z,27.1
2018-11-11T08:06:06.607Z,27.1
2018-11-11T08:07:08.758Z,27.1
2018-11-11T08:08:11.195Z,27.1
2018-11-11T08:09:13.343Z,27.1
2018-11-11T08:10:15.214Z,27.1
2018-11-11T08:11:17.463Z,27.1
2018-11-11T08:12:19.448Z,27.1
2018-11-11T08:13:21.596Z,27.1
2018-11-11T08:14:23.748Z,27.1
2018-11-11T08:15:25.911Z,27.1
2018-11-11T08:16:28.065Z,27.1
2018-11-11T08:17:29.984Z,27.1
2018-11-11T08:18:31.860Z,27.1
2018-11-11T08:19:33.734Z,27.1
2018-11-11T08:20:35.908Z,27.1
2018-11-11T08:21:38.042Z,27.1
2018-11-11T08:22:40.198Z,27.1
2018-11-11T08:23:42.372Z,27.1
2018-11-11T08:24:44.278Z,27.1
2018-11-11T08:25:46.716Z,27.1
2018-11-11T08:26:49.144Z,27.1
2018-11-11T08:27:51.314Z,27.1
2018-11-11T08:28:53.746Z,27.1
2018-11-11T08:29:55.886Z,27.1
2018-11-11T08:30:57.785Z,27.1
2018-11-11T08:31:59.768Z,27.1
2018-11-11T08:33:02.002Z,27.1
2018-11-11T08:34:04.163Z,27.1
2018-11-11T08:35:06.056Z,27.1
2018-11-11T08:36:07.682Z,27.1
2018-11-11T08:37:10.108Z,27.1
2018-11-11T08:38:12.250Z,27.1
2018-11-11T08:39:14.684Z,27.1
2018-11-11T08:40:17.239Z,27.1
2018-11-11T08:41:19.805Z,27.1
2018-11-11T08:42:22.254Z,27.1
2018-11-11T08:43:24.132Z,27.1
2018-11-11T08:44:26.285Z,27.1
2018-11-11T08:45:27.893Z,27.1
2018-11-11T08:46:30.325Z,27.1
2018-11-11T08:47:32.483Z,27.1
2018-11-11T08:48:34.367Z,27.1
2018-11-11T08:49:36.801Z,27.1
2018-11-11T08:50:38.951Z,27.1
2018-11-11T08:51:41.393Z,27.1
2018-11-11T08:52:43.827Z,27.1
2018-11-11T08:53:45.431Z,27.1
2018-11-11T08:54:47.583Z,27.1
2018-11-11T08:55:49.748Z,27.1
2018-11-11T08:56:52.179Z,27.1
2018-11-11T08:57:54.279Z,27.1
2018-11-11T08:58:56.479Z,27.1
2018-11-11T08:59:58.940Z,27.1
2018-11-11T09:01:01.116Z,27.1
2018-11-11T09:02:03.258Z,27.1
2018-11-11T09:03:05.166Z,27.1
2018-11-11T09:04:07.032Z,27.1
2018-11-11T09:05:08.619Z,27.1
2018-11-11T09:06:10.205Z,27.1
2018-11-11T09:07:12.093Z,27.1
2018-11-11T09:08:14.253Z,27.1
2018-11-11T09:09:16.680Z,27.1
2018-11-11T09:10:19.114Z,27.1
2018-11-11T09:11:21.468Z,27.1
2018-11-11T09:12:24.122Z,27.1
2018-11-11T09:13:26.016Z,27.1
2018-11-11T09:14:28.226Z,27.1
2018-11-11T09:15:30.665Z,27.1
2018-11-11T09:16:33.117Z,27.1
2018-11-11T09:17:35.562Z,27.1
2018-11-11T09:18:37.402Z,27.1
2018-11-11T09:19:39.834Z,27.1
2018-11-11T09:20:42.001Z,27.1
2018-11-11T09:21:43.888Z,27.1
2018-11-11T09:22:46.066Z,27.1
2018-11-11T09:23:48.523Z,27.1
2018-11-11T09:24:51.302Z,27.1
2018-11-11T09:25:53.496Z,27.1
2018-11-11T09:26:55.068Z,27.1
2018-11-11T09:27:57.210Z,27.1
2018-11-11T09:28:59.450Z,27.1
2018-11-11T09:30:01.341Z,27.1
2018-11-11T09:31:03.220Z,27.1
2018-11-11T09:32:05.651Z,27.1
2018-11-11T09:33:08.101Z,27.1
2018-11-11T09:34:10.263Z,27.1
2018-11-11T09:35:12.736Z,27.1
2018-11-11T09:36:15.307Z,27.1
2018-11-11T09:37:17.197Z,27.1
2018-11-11T09:38:19.378Z,27.1
2018-11-11T09:39:21.811Z,27.1
2018-11-11T09:40:23.976Z,27.1
2018-11-11T09:41:26.144Z,27.1
2018-11-11T09:42:28.145Z,27.1
2018-11-11T09:43:30.442Z,27.1
2018-11-11T09:44:32.580Z,27.1
2018-11-11T09:45:34.737Z,27.1
2018-11-11T09:46:36.899Z,27.1
2018-11-11T09:47:39.145Z,27.1
2018-11-11T09:48:41.075Z,27.1
2018-11-11T09:49:43.500Z,27.1
2018-11-11T09:50:45.646Z,27.1
2018-11-11T09:51:47.551Z,27.1
2018-11-11T09:52:50.151Z,27.1
2018-11-11T09:53:53.071Z,27.1
2018-11-11T09:54:55.271Z,27.1
2018-11-11T09:55:57.702Z,27.1
2018-11-11T09:56:59.888Z,27.1
2018-11-11T09:58:02.050Z,27.1
2018-11-11T09:59:04.217Z,27.1
2018-11-11T10:00:06.655Z,27.1
2018-11-11T10:01:08.822Z,27.1
2018-11-11T10:02:11.247Z,27.1
2018-11-11T10:03:13.380Z,27.1
2018-11-11T10:04:15.821Z,27.1
2018-11-11T10:05:17.718Z,27.1
2018-11-11T10:06:19.628Z,27.1
2018-11-11T10:07:21.848Z,27.1
2018-11-11T10:08:24.278Z,27.1
2018-11-11T10:09:26.711Z,27.1
2018-11-11T10:10:28.847Z,27.1
2018-11-11T10:11:31.270Z,27.1
2018-11-11T10:12:34.137Z,27.1
2018-11-11T10:13:36.222Z,27.1
2018-11-11T10:14:38.377Z,27.1
2018-11-11T10:15:40.252Z,27.1
2018-11-11T10:16:42.672Z,27.1
2018-11-11T10:17:44.573Z,27.1
2018-11-11T10:18:46.444Z,27.1
2018-11-11T10:19:48.597Z,27.1
2018-11-11T10:20:50.857Z,27.1
2018-11-11T10:21:53.334Z,27.1
2018-11-11T10:22:55.769Z,27.1
2018-11-11T10:23:57.377Z,27.1
2018-11-11T10:24:59.823Z,27.1
2018-11-11T10:26:02.267Z,27.1
2018-11-11T10:27:04.744Z,27.1
2018-11-11T10:28:06.953Z,27.1
2018-11-11T10:29:09.209Z,27.1
2018-11-11T10:30:11.425Z,27.1
2018-11-11T10:31:13.299Z,27.1
2018-11-11T10:32:14.897Z,27.1
2018-11-11T10:33:17.099Z,27.1
2018-11-11T10:34:19.627Z,27.1
2018-11-11T10:35:21.245Z,27.1
2018-11-11T10:36:23.672Z,27.1
2018-11-11T10:37:26.450Z,27.1
2018-11-11T10:38:28.852Z,27.1
2018-11-11T10:39:31.025Z,27.1
2018-11-11T10:40:33.177Z,27.1
2018-11-11T10:41:35.349Z,27.1
2018-11-11T10:42:37.484Z,27.1
2018-11-11T10:43:39.340Z,27.1
2018-11-11T10:44:41.496Z,27.1
2018-11-11T10:45:43.672Z,27.1
2018-11-11T10:46:46.106Z,27.1
2018-11-11T10:47:47.989Z,27.1
2018-11-11T10:48:49.874Z,27.1
2018-11-11T10:49:52.301Z,27.1
2018-11-11T10:50:54.481Z,27.1
2018-11-11T10:51:56.665Z,27.1
2018-11-11T10:52:58.549Z,27
2018-11-11T10:54:00.709Z,27.1
2018-11-11T10:55:02.856Z,27.1
2018-11-11T10:56:05.319Z,27
2018-11-11T10:57:07.164Z,27
2018-11-11T10:58:09.030Z,27
2018-11-11T10:59:10.658Z,27
2018-11-11T11:00:13.009Z,27
2018-11-11T11:01:15.363Z,27
2018-11-11T11:02:17.249Z,27
2018-11-11T11:03:19.127Z,27
2018-11-11T11:04:21.299Z,27
2018-11-11T11:05:23.477Z,27
2018-11-11T11:06:25.912Z,27
2018-11-11T11:07:28.068Z,27
2018-11-11T11:08:30.229Z,27
2018-11-11T11:09:32.662Z,27
2018-11-11T11:10:34.808Z,27
2018-11-11T11:11:36.676Z,27
2018-11-11T11:12:38.829Z,27
2018-11-11T11:13:41.144Z,27
2018-11-11T11:14:43.375Z,27
2018-11-11T11:15:45.815Z,27
2018-11-11T11:16:47.952Z,27
2018-11-11T11:17:50.108Z,27
2018-11-11T11:18:52.549Z,27
2018-11-11T11:19:54.981Z,27
2018-11-11T11:20:57.425Z,27
2018-11-11T11:21:58.770Z,27
2018-11-11T11:23:01.435Z,27
2018-11-11T11:24:03.932Z,27
2018-11-11T11:25:06.101Z,27
2018-11-11T11:26:08.270Z,27
2018-11-11T11:27:10.619Z,27
2018-11-11T11:28:13.195Z,27
2018-11-11T11:29:15.364Z,27
2018-11-11T11:30:17.530Z,27
2018-11-11T11:31:19.600Z,27
2018-11-11T11:32:22.173Z,27
2018-11-11T11:33:24.045Z,27
2018-11-11T11:34:26.263Z,27
2018-11-11T11:35:28.222Z,27
2018-11-11T11:36:30.488Z,27
2018-11-11T11:37:32.931Z,27
2018-11-11T11:38:35.368Z,27
2018-11-11T11:39:37.763Z,27
2018-11-11T11:40:39.924Z,27
2018-11-11T11:41:42.097Z,27
2018-11-11T11:42:43.996Z,27
2018-11-11T11:43:46.169Z,27
2018-11-11T11:44:48.040Z,27
2018-11-11T11:45:50.217Z,27
2018-11-11T11:46:52.389Z,27
2018-11-11T11:47:54.279Z,27
2018-11-11T11:48:56.708Z,27
2018-11-11T11:49:59.343Z,27
2018-11-11T11:51:01.405Z,27
2018-11-11T11:52:03.861Z,27
2018-11-11T11:53:05.997Z,27
2018-11-11T11:54:08.155Z,27
2018-11-11T11:55:10.328Z,27
2018-11-11T11:56:12.769Z,27
2018-11-11T11:57:14.933Z,27
2018-11-11T11:58:17.652Z,27
2018-11-11T11:59:20.090Z,27
2018-11-11T12:00:22.239Z,27
2018-11-11T12:01:24.407Z,27
2018-11-11T12:02:26.589Z,27
2018-11-11T12:03:28.479Z,27
2018-11-11T12:04:30.069Z,27
2018-11-11T12:05:31.924Z,27
2018-11-11T12:06:34.063Z,27
2018-11-11T12:07:36.250Z,27
2018-11-11T12:08:38.917Z,27
2018-11-11T12:09:41.377Z,27
2018-11-11T12:10:43.555Z,27
2018-11-11T12:11:45.162Z,27
2018-11-11T12:12:47.313Z,27
2018-11-11T12:13:49.202Z,27
2018-11-11T12:14:51.634Z,27
2018-11-11T12:15:53.805Z,27
2018-11-11T12:16:56.043Z,27
2018-11-11T12:17:58.585Z,27
2018-11-11T12:19:00.742Z,27
2018-11-11T12:20:02.882Z,27
2018-11-11T12:21:04.478Z,27
2018-11-11T12:22:06.935Z,27
2018-11-11T12:23:09.176Z,27
2018-11-11T12:24:11.538Z,27
2018-11-11T12:25:13.422Z,27
2018-11-11T12:26:15.576Z,27
2018-11-11T12:27:18.022Z,27
2018-11-11T12:28:20.189Z,27
2018-11-11T12:29:22.617Z,27
2018-11-11T12:30:24.642Z,27
2018-11-11T12:31:27.401Z,27
2018-11-11T12:32:29.562Z,27
2018-11-11T12:33:30.905Z,27
2018-11-11T12:34:33.336Z,27
2018-11-11T12:35:35.226Z,27
2018-11-11T12:36:37.396Z,27
2018-11-11T12:37:39.549Z,27
2018-11-11T12:38:41.981Z,27
2018-11-11T12:39:44.808Z,27
2018-11-11T12:40:47.277Z,27
2018-11-11T12:41:49.411Z,27
2018-11-11T12:42:51.879Z,27
2018-11-11T12:43:53.748Z,27
2018-11-11T12:44:56.561Z,27
2018-11-11T12:45:59.241Z,27
2018-11-11T12:47:02.371Z,27
2018-11-11T12:48:04.984Z,27
2018-11-11T12:49:07.025Z,27
2018-11-11T12:50:09.107Z,27
2018-11-11T12:51:11.445Z,27
2018-11-11T12:52:13.357Z,27
2018-11-11T12:53:15.518Z,27
2018-11-11T12:54:17.667Z,27
2018-11-11T12:55:19.920Z,27
2018-11-11T12:56:22.661Z,27
2018-11-11T12:57:25.088Z,27
2018-11-11T12:58:27.001Z,27
2018-11-11T12:59:29.428Z,27
2018-11-11T13:00:31.600Z,27
2018-11-11T13:01:34.058Z,27
2018-11-11T13:02:36.505Z,27
2018-11-11T13:03:38.386Z,27
2018-11-11T13:04:40.885Z,27
2018-11-11T13:05:42.636Z,27
2018-11-11T13:06:44.533Z,27
2018-11-11T13:07:46.716Z,27
2018-11-11T13:08:49.148Z,27
2018-11-11T13:09:51.036Z,27
2018-11-11T13:10:53.204Z,27
2018-11-11T13:11:54.636Z,27
2018-11-11T13:12:55.905Z,27
2018-11-11T13:13:57.974Z,27
2018-11-11T13:14:59.818Z,27
2018-11-11T13:16:01.976Z,27
2018-11-11T13:17:04.129Z,27
2018-11-11T13:18:06.576Z,27
2018-11-11T13:19:08.190Z,27
2018-11-11T13:20:10.055Z,27
2018-11-11T13:21:12.232Z,27
2018-11-11T13:22:15.218Z,27
2018-11-11T13:23:17.328Z,27
2018-11-11T13:24:19.216Z,27
2018-11-11T13:25:21.097Z,27
2018-11-11T13:26:23.533Z,27
2018-11-11T13:27:25.406Z,27
2018-11-11T13:28:27.557Z,27
2018-11-11T13:29:29.706Z,27
2018-11-11T13:30:31.864Z,27
2018-11-11T13:31:34.049Z,27
2018-11-11T13:32:35.647Z,27
2018-11-11T13:33:37.811Z,27
2018-11-11T13:34:39.399Z,27
2018-11-11T13:35:41.285Z,27
2018-11-11T13:36:43.188Z,27
2018-11-11T13:37:45.528Z,27
2018-11-11T13:38:48.128Z,27
2018-11-11T13:39:50.020Z,27
2018-11-11T13:40:52.174Z,27
2018-11-11T13:41:54.341Z,27
2018-11-11T13:42:55.676Z,27
2018-11-11T13:43:57.863Z,27
2018-11-11T13:45:00.052Z,27
2018-11-11T13:46:02.480Z,27
2018-11-11T13:47:04.698Z,27
2018-11-11T13:48:06.832Z,27
2018-11-11T13:49:08.990Z,27
2018-11-11T13:50:10.327Z,27
2018-11-11T13:51:12.554Z,27
2018-11-11T13:52:14.739Z,27
2018-11-11T13:53:16.661Z,27
2018-11-11T13:54:19.111Z,27
2018-11-11T13:55:21.276Z,27
2018-11-11T13:56:23.437Z,27
2018-11-11T13:57:25.858Z,27
2018-11-11T13:58:28.001Z,27
2018-11-11T13:59:29.910Z,27
2018-11-11T14:00:31.793Z,27